sensor_id;sensor_type;location;lat;lon;timestamp;P1;durP1;ratioP1;P2;durP2;ratioP2
32138;SDS011;18644;48.700;9.210;2022-08-21T00:00:42;2.65;;;1.17;;
32138;SDS011;18644;48.700;9.210;2022-08-21T00:03:09;5.97;;;1.05;;
32138;SDS011;18644;48.700;9.210;2022-08-21T00:05:39;1.48;;;1.15;;
32138;SDS011;18644;48.700;9.210;2022-08-21T00:08:10;3.78;;;1.52;;
32138;SDS011;18644;48.700;9.210;2022-08-21T00:10:38;1.10;;;0.98;;
32138;SDS011;18644;48.700;9.210;2022-08-21T00:13:06;1.75;;;1.15;;
32138;SDS011;18644;48.700;9.210;2022-08-21T00:15:34;2.35;;;1.38;;
32138;SDS011;18644;48.700;9.210;2022-08-21T00:18:03;7.03;;;1.60;;
32138;SDS011;18644;48.700;9.210;2022-08-21T00:20:31;1.20;;;1.10;;
32138;SDS011;18644;48.700;9.210;2022-08-21T00:23:00;2.97;;;1.17;;
32138;SDS011;18644;48.700;9.210;2022-08-21T00:25:28;3.45;;;1.60;;
32138;SDS011;18644;48.700;9.210;2022-08-21T00:27:56;1.52;;;1.20;;
32138;SDS011;18644;48.700;9.210;2022-08-21T00:30:24;6.20;;;1.90;;
32138;SDS011;18644;48.700;9.210;2022-08-21T00:32:52;0.82;;;0.82;;
32138;SDS011;18644;48.700;9.210;2022-08-21T00:35:23;10.20;;;1.50;;
32138;SDS011;18644;48.700;9.210;2022-08-21T00:37:53;2.45;;;1.10;;
32138;SDS011;18644;48.700;9.210;2022-08-21T00:40:23;2.67;;;1.30;;
32138;SDS011;18644;48.700;9.210;2022-08-21T00:42:55;4.72;;;1.05;;
32138;SDS011;18644;48.700;9.210;2022-08-21T00:45:23;3.08;;;1.08;;
32138;SDS011;18644;48.700;9.210;2022-08-21T00:47:52;3.88;;;1.40;;
32138;SDS011;18644;48.700;9.210;2022-08-21T00:50:21;3.65;;;1.23;;
32138;SDS011;18644;48.700;9.210;2022-08-21T00:52:52;2.90;;;1.45;;
32138;SDS011;18644;48.700;9.210;2022-08-21T00:55:20;8.30;;;1.50;;
32138;SDS011;18644;48.700;9.210;2022-08-21T00:57:49;5.25;;;1.65;;
32138;SDS011;18644;48.700;9.210;2022-08-21T01:00:26;1.60;;;1.10;;
32138;SDS011;18644;48.700;9.210;2022-08-21T01:02:57;4.30;;;0.98;;
32138;SDS011;18644;48.700;9.210;2022-08-21T01:05:27;2.00;;;1.00;;
32138;SDS011;18644;48.700;9.210;2022-08-21T01:07:54;2.13;;;1.10;;
32138;SDS011;18644;48.700;9.210;2022-08-21T01:10:22;1.48;;;0.98;;
32138;SDS011;18644;48.700;9.210;2022-08-21T01:12:49;2.92;;;1.17;;
32138;SDS011;18644;48.700;9.210;2022-08-21T01:15:17;2.33;;;1.35;;
32138;SDS011;18644;48.700;9.210;2022-08-21T01:17:47;2.78;;;0.98;;
32138;SDS011;18644;48.700;9.210;2022-08-21T01:20:15;2.10;;;1.13;;
32138;SDS011;18644;48.700;9.210;2022-08-21T01:22:43;3.35;;;1.33;;
32138;SDS011;18644;48.700;9.210;2022-08-21T01:25:14;4.05;;;1.10;;
32138;SDS011;18644;48.700;9.210;2022-08-21T01:27:44;6.30;;;1.20;;
32138;SDS011;18644;48.700;9.210;2022-08-21T01:30:13;3.80;;;1.35;;
32138;SDS011;18644;48.700;9.210;2022-08-21T01:32:43;3.70;;;0.90;;
32138;SDS011;18644;48.700;9.210;2022-08-21T01:35:11;4.10;;;1.60;;
32138;SDS011;18644;48.700;9.210;2022-08-21T01:37:39;4.82;;;1.80;;
32138;SDS011;18644;48.700;9.210;2022-08-21T01:40:08;2.95;;;1.45;;
32138;SDS011;18644;48.700;9.210;2022-08-21T01:42:37;1.67;;;1.30;;
32138;SDS011;18644;48.700;9.210;2022-08-21T01:45:05;5.47;;;1.33;;
32138;SDS011;18644;48.700;9.210;2022-08-21T01:47:33;2.85;;;1.08;;
32138;SDS011;18644;48.700;9.210;2022-08-21T01:50:00;1.27;;;1.17;;
32138;SDS011;18644;48.700;9.210;2022-08-21T01:52:29;1.90;;;0.98;;
32138;SDS011;18644;48.700;9.210;2022-08-21T01:54:56;1.20;;;1.02;;
32138;SDS011;18644;48.700;9.210;2022-08-21T01:57:24;3.15;;;1.55;;
32138;SDS011;18644;48.700;9.210;2022-08-21T01:59:52;4.28;;;1.40;;
32138;SDS011;18644;48.700;9.210;2022-08-21T02:02:19;3.25;;;1.50;;
32138;SDS011;18644;48.700;9.210;2022-08-21T02:04:46;2.65;;;1.45;;
32138;SDS011;18644;48.700;9.210;2022-08-21T02:07:13;1.67;;;1.30;;
32138;SDS011;18644;48.700;9.210;2022-08-21T02:09:40;1.60;;;1.00;;
32138;SDS011;18644;48.700;9.210;2022-08-21T02:12:08;1.73;;;1.30;;
32138;SDS011;18644;48.700;9.210;2022-08-21T02:14:36;2.10;;;1.17;;
32138;SDS011;18644;48.700;9.210;2022-08-21T02:17:03;2.17;;;1.33;;
32138;SDS011;18644;48.700;9.210;2022-08-21T02:19:31;4.90;;;1.60;;
32138;SDS011;18644;48.700;9.210;2022-08-21T02:21:58;2.58;;;1.38;;
32138;SDS011;18644;48.700;9.210;2022-08-21T02:24:25;1.60;;;1.20;;
32138;SDS011;18644;48.700;9.210;2022-08-21T02:26:52;1.52;;;1.35;;
32138;SDS011;18644;48.700;9.210;2022-08-21T02:29:19;1.90;;;1.40;;
32138;SDS011;18644;48.700;9.210;2022-08-21T02:31:47;1.85;;;1.20;;
32138;SDS011;18644;48.700;9.210;2022-08-21T02:34:14;2.13;;;1.40;;
32138;SDS011;18644;48.700;9.210;2022-08-21T02:36:40;1.23;;;1.10;;
32138;SDS011;18644;48.700;9.210;2022-08-21T02:39:07;2.95;;;1.35;;
32138;SDS011;18644;48.700;9.210;2022-08-21T02:41:34;1.88;;;1.27;;
32138;SDS011;18644;48.700;9.210;2022-08-21T02:44:01;1.38;;;1.08;;
32138;SDS011;18644;48.700;9.210;2022-08-21T02:46:28;1.27;;;1.02;;
32138;SDS011;18644;48.700;9.210;2022-08-21T02:48:57;4.10;;;1.60;;
32138;SDS011;18644;48.700;9.210;2022-08-21T02:51:23;2.17;;;1.23;;
32138;SDS011;18644;48.700;9.210;2022-08-21T02:53:50;2.65;;;1.60;;
32138;SDS011;18644;48.700;9.210;2022-08-21T02:56:19;2.58;;;1.23;;
32138;SDS011;18644;48.700;9.210;2022-08-21T02:58:48;1.42;;;1.10;;
32138;SDS011;18644;48.700;9.210;2022-08-21T03:01:17;1.85;;;1.00;;
32138;SDS011;18644;48.700;9.210;2022-08-21T03:03:45;1.30;;;1.20;;
32138;SDS011;18644;48.700;9.210;2022-08-21T03:06:17;1.20;;;1.10;;
32138;SDS011;18644;48.700;9.210;2022-08-21T03:08:46;2.65;;;1.10;;
32138;SDS011;18644;48.700;9.210;2022-08-21T03:11:14;1.20;;;1.10;;
32138;SDS011;18644;48.700;9.210;2022-08-21T03:13:42;2.50;;;1.05;;
32138;SDS011;18644;48.700;9.210;2022-08-21T03:16:09;1.38;;;1.02;;
32138;SDS011;18644;48.700;9.210;2022-08-21T03:18:36;5.65;;;1.23;;
32138;SDS011;18644;48.700;9.210;2022-08-21T03:21:03;1.80;;;1.63;;
32138;SDS011;18644;48.700;9.210;2022-08-21T03:23:32;2.28;;;1.30;;
32138;SDS011;18644;48.700;9.210;2022-08-21T03:25:59;4.53;;;1.40;;
32138;SDS011;18644;48.700;9.210;2022-08-21T03:28:26;3.28;;;1.70;;
32138;SDS011;18644;48.700;9.210;2022-08-21T03:30:53;1.25;;;1.10;;
32138;SDS011;18644;48.700;9.210;2022-08-21T03:33:21;2.75;;;1.30;;
32138;SDS011;18644;48.700;9.210;2022-08-21T03:35:51;1.33;;;1.10;;
32138;SDS011;18644;48.700;9.210;2022-08-21T03:38:25;4.15;;;1.67;;
32138;SDS011;18644;48.700;9.210;2022-08-21T03:40:55;1.65;;;1.40;;
32138;SDS011;18644;48.700;9.210;2022-08-21T03:43:23;1.45;;;1.23;;
32138;SDS011;18644;48.700;9.210;2022-08-21T03:45:49;2.15;;;1.10;;
32138;SDS011;18644;48.700;9.210;2022-08-21T03:48:17;2.55;;;1.05;;
32138;SDS011;18644;48.700;9.210;2022-08-21T03:50:44;2.97;;;1.10;;
32138;SDS011;18644;48.700;9.210;2022-08-21T03:53:12;2.45;;;1.13;;
32138;SDS011;18644;48.700;9.210;2022-08-21T03:55:40;2.85;;;1.42;;
32138;SDS011;18644;48.700;9.210;2022-08-21T03:58:08;1.42;;;1.08;;
32138;SDS011;18644;48.700;9.210;2022-08-21T04:00:35;1.52;;;1.42;;
32138;SDS011;18644;48.700;9.210;2022-08-21T04:03:02;4.15;;;1.50;;
32138;SDS011;18644;48.700;9.210;2022-08-21T04:05:29;1.15;;;1.05;;
32138;SDS011;18644;48.700;9.210;2022-08-21T04:07:58;1.85;;;1.17;;
32138;SDS011;18644;48.700;9.210;2022-08-21T04:10:28;1.48;;;1.30;;
32138;SDS011;18644;48.700;9.210;2022-08-21T04:12:59;1.75;;;1.42;;
32138;SDS011;18644;48.700;9.210;2022-08-21T04:15:28;2.72;;;1.20;;
32138;SDS011;18644;48.700;9.210;2022-08-21T04:17:54;2.55;;;1.38;;
32138;SDS011;18644;48.700;9.210;2022-08-21T04:20:21;2.78;;;1.30;;
32138;SDS011;18644;48.700;9.210;2022-08-21T04:22:50;1.40;;;1.17;;
32138;SDS011;18644;48.700;9.210;2022-08-21T04:25:19;1.73;;;1.20;;
32138;SDS011;18644;48.700;9.210;2022-08-21T04:27:47;1.73;;;1.10;;
32138;SDS011;18644;48.700;9.210;2022-08-21T04:30:15;1.50;;;1.30;;
32138;SDS011;18644;48.700;9.210;2022-08-21T04:32:43;4.47;;;1.75;;
32138;SDS011;18644;48.700;9.210;2022-08-21T04:35:13;2.72;;;1.33;;
32138;SDS011;18644;48.700;9.210;2022-08-21T04:37:42;1.38;;;1.27;;
32138;SDS011;18644;48.700;9.210;2022-08-21T04:40:09;3.30;;;1.33;;
32138;SDS011;18644;48.700;9.210;2022-08-21T04:42:41;1.88;;;1.35;;
32138;SDS011;18644;48.700;9.210;2022-08-21T04:45:14;1.08;;;0.98;;
32138;SDS011;18644;48.700;9.210;2022-08-21T04:47:47;1.35;;;1.25;;
32138;SDS011;18644;48.700;9.210;2022-08-21T04:50:16;4.03;;;1.40;;
32138;SDS011;18644;48.700;9.210;2022-08-21T04:52:43;2.55;;;1.45;;
32138;SDS011;18644;48.700;9.210;2022-08-21T04:55:10;1.45;;;1.27;;
32138;SDS011;18644;48.700;9.210;2022-08-21T04:57:38;1.55;;;1.00;;
32138;SDS011;18644;48.700;9.210;2022-08-21T05:00:07;2.15;;;1.73;;
32138;SDS011;18644;48.700;9.210;2022-08-21T05:02:38;1.85;;;1.45;;
32138;SDS011;18644;48.700;9.210;2022-08-21T05:05:08;3.08;;;1.60;;
32138;SDS011;18644;48.700;9.210;2022-08-21T05:07:35;2.25;;;1.27;;
32138;SDS011;18644;48.700;9.210;2022-08-21T05:10:03;2.17;;;1.58;;
32138;SDS011;18644;48.700;9.210;2022-08-21T05:12:32;2.10;;;1.60;;
32138;SDS011;18644;48.700;9.210;2022-08-21T05:15:00;2.45;;;1.27;;
32138;SDS011;18644;48.700;9.210;2022-08-21T05:17:27;2.75;;;1.67;;
32138;SDS011;18644;48.700;9.210;2022-08-21T05:19:54;2.28;;;1.88;;
32138;SDS011;18644;48.700;9.210;2022-08-21T05:22:22;2.03;;;1.45;;
32138;SDS011;18644;48.700;9.210;2022-08-21T05:24:50;2.90;;;1.58;;
32138;SDS011;18644;48.700;9.210;2022-08-21T05:27:18;2.67;;;2.05;;
32138;SDS011;18644;48.700;9.210;2022-08-21T05:29:45;2.42;;;1.73;;
32138;SDS011;18644;48.700;9.210;2022-08-21T05:32:12;2.30;;;1.70;;
32138;SDS011;18644;48.700;9.210;2022-08-21T05:34:40;4.07;;;1.88;;
32138;SDS011;18644;48.700;9.210;2022-08-21T05:37:09;1.95;;;1.75;;
32138;SDS011;18644;48.700;9.210;2022-08-21T05:39:38;3.75;;;2.00;;
32138;SDS011;18644;48.700;9.210;2022-08-21T05:42:05;2.80;;;1.52;;
32138;SDS011;18644;48.700;9.210;2022-08-21T05:44:32;2.72;;;1.67;;
32138;SDS011;18644;48.700;9.210;2022-08-21T05:47:02;2.38;;;1.92;;
32138;SDS011;18644;48.700;9.210;2022-08-21T05:49:30;2.17;;;1.42;;
32138;SDS011;18644;48.700;9.210;2022-08-21T05:51:57;2.20;;;1.70;;
32138;SDS011;18644;48.700;9.210;2022-08-21T05:54:24;3.25;;;1.88;;
32138;SDS011;18644;48.700;9.210;2022-08-21T05:56:52;2.88;;;1.90;;
32138;SDS011;18644;48.700;9.210;2022-08-21T05:59:19;3.58;;;2.05;;
32138;SDS011;18644;48.700;9.210;2022-08-21T06:01:46;2.53;;;1.85;;
32138;SDS011;18644;48.700;9.210;2022-08-21T06:04:13;2.63;;;1.95;;
32138;SDS011;18644;48.700;9.210;2022-08-21T06:06:41;3.10;;;1.85;;
32138;SDS011;18644;48.700;9.210;2022-08-21T06:09:08;4.07;;;2.20;;
32138;SDS011;18644;48.700;9.210;2022-08-21T06:11:34;2.22;;;1.80;;
32138;SDS011;18644;48.700;9.210;2022-08-21T06:14:03;2.53;;;1.60;;
32138;SDS011;18644;48.700;9.210;2022-08-21T06:16:31;2.55;;;1.83;;
32138;SDS011;18644;48.700;9.210;2022-08-21T06:18:58;3.40;;;2.38;;
32138;SDS011;18644;48.700;9.210;2022-08-21T06:21:25;3.28;;;2.28;;
32138;SDS011;18644;48.700;9.210;2022-08-21T06:23:52;2.78;;;1.50;;
32138;SDS011;18644;48.700;9.210;2022-08-21T06:26:19;5.32;;;1.80;;
32138;SDS011;18644;48.700;9.210;2022-08-21T06:28:46;3.03;;;1.95;;
32138;SDS011;18644;48.700;9.210;2022-08-21T06:31:15;3.42;;;2.20;;
32138;SDS011;18644;48.700;9.210;2022-08-21T06:36:12;2.08;;;1.70;;
32138;SDS011;18644;48.700;9.210;2022-08-21T06:38:39;4.45;;;2.05;;
32138;SDS011;18644;48.700;9.210;2022-08-21T06:41:06;3.17;;;2.03;;
32138;SDS011;18644;48.700;9.210;2022-08-21T06:43:34;2.60;;;1.85;;
32138;SDS011;18644;48.700;9.210;2022-08-21T06:46:01;2.15;;;1.95;;
32138;SDS011;18644;48.700;9.210;2022-08-21T06:48:29;3.03;;;1.80;;
32138;SDS011;18644;48.700;9.210;2022-08-21T06:50:58;1.73;;;1.58;;
32138;SDS011;18644;48.700;9.210;2022-08-21T06:53:25;2.28;;;1.63;;
32138;SDS011;18644;48.700;9.210;2022-08-21T06:55:52;2.75;;;1.88;;
32138;SDS011;18644;48.700;9.210;2022-08-21T06:58:19;5.95;;;2.15;;
32138;SDS011;18644;48.700;9.210;2022-08-21T07:00:47;4.25;;;2.15;;
32138;SDS011;18644;48.700;9.210;2022-08-21T07:03:18;3.90;;;1.58;;
32138;SDS011;18644;48.700;9.210;2022-08-21T07:05:48;2.42;;;1.58;;
32138;SDS011;18644;48.700;9.210;2022-08-21T07:08:15;3.17;;;1.90;;
32138;SDS011;18644;48.700;9.210;2022-08-21T07:10:43;2.67;;;1.70;;
32138;SDS011;18644;48.700;9.210;2022-08-21T07:13:10;1.95;;;1.70;;
32138;SDS011;18644;48.700;9.210;2022-08-21T07:15:38;2.80;;;1.60;;
32138;SDS011;18644;48.700;9.210;2022-08-21T07:18:05;2.17;;;1.83;;
32138;SDS011;18644;48.700;9.210;2022-08-21T07:20:32;6.10;;;1.58;;
32138;SDS011;18644;48.700;9.210;2022-08-21T07:23:01;1.80;;;1.52;;
32138;SDS011;18644;48.700;9.210;2022-08-21T07:27:58;2.97;;;1.88;;
32138;SDS011;18644;48.700;9.210;2022-08-21T07:30:26;2.17;;;1.98;;
32138;SDS011;18644;48.700;9.210;2022-08-21T07:32:53;2.15;;;1.80;;
32138;SDS011;18644;48.700;9.210;2022-08-21T07:35:20;3.10;;;2.00;;
32138;SDS011;18644;48.700;9.210;2022-08-21T07:37:48;3.22;;;2.05;;
32138;SDS011;18644;48.700;9.210;2022-08-21T07:40:17;2.70;;;1.90;;
32138;SDS011;18644;48.700;9.210;2022-08-21T07:42:47;4.80;;;1.80;;
32138;SDS011;18644;48.700;9.210;2022-08-21T07:45:16;3.13;;;1.98;;
32138;SDS011;18644;48.700;9.210;2022-08-21T07:47:46;5.07;;;1.90;;
32138;SDS011;18644;48.700;9.210;2022-08-21T07:50:14;3.22;;;1.65;;
32138;SDS011;18644;48.700;9.210;2022-08-21T07:52:41;3.20;;;2.03;;
32138;SDS011;18644;48.700;9.210;2022-08-21T07:55:09;2.28;;;1.88;;
32138;SDS011;18644;48.700;9.210;2022-08-21T07:57:40;5.07;;;2.20;;
32138;SDS011;18644;48.700;9.210;2022-08-21T08:00:10;5.53;;;2.13;;
32138;SDS011;18644;48.700;9.210;2022-08-21T08:02:46;3.05;;;2.10;;
32138;SDS011;18644;48.700;9.210;2022-08-21T08:05:17;3.67;;;1.92;;
32138;SDS011;18644;48.700;9.210;2022-08-21T08:07:46;4.18;;;2.20;;
32138;SDS011;18644;48.700;9.210;2022-08-21T08:10:13;3.58;;;2.10;;
32138;SDS011;18644;48.700;9.210;2022-08-21T08:12:43;7.05;;;2.08;;
32138;SDS011;18644;48.700;9.210;2022-08-21T08:15:11;2.72;;;1.80;;
32138;SDS011;18644;48.700;9.210;2022-08-21T08:17:41;2.42;;;1.88;;
32138;SDS011;18644;48.700;9.210;2022-08-21T08:20:09;2.50;;;1.70;;
32138;SDS011;18644;48.700;9.210;2022-08-21T08:22:39;4.13;;;1.90;;
32138;SDS011;18644;48.700;9.210;2022-08-21T08:25:09;2.35;;;2.03;;
32138;SDS011;18644;48.700;9.210;2022-08-21T08:27:38;3.55;;;2.10;;
32138;SDS011;18644;48.700;9.210;2022-08-21T08:30:08;4.32;;;2.13;;
32138;SDS011;18644;48.700;9.210;2022-08-21T08:32:38;1.90;;;1.67;;
32138;SDS011;18644;48.700;9.210;2022-08-21T08:35:06;2.00;;;1.80;;
32138;SDS011;18644;48.700;9.210;2022-08-21T08:37:34;2.25;;;1.80;;
32138;SDS011;18644;48.700;9.210;2022-08-21T08:40:05;2.72;;;1.70;;
32138;SDS011;18644;48.700;9.210;2022-08-21T08:42:37;3.50;;;1.83;;
32138;SDS011;18644;48.700;9.210;2022-08-21T08:45:05;2.90;;;1.83;;
32138;SDS011;18644;48.700;9.210;2022-08-21T08:47:38;1.95;;;1.70;;
32138;SDS011;18644;48.700;9.210;2022-08-21T08:50:11;3.53;;;2.22;;
32138;SDS011;18644;48.700;9.210;2022-08-21T08:52:45;3.85;;;1.75;;
32138;SDS011;18644;48.700;9.210;2022-08-21T08:55:18;2.50;;;1.67;;
32138;SDS011;18644;48.700;9.210;2022-08-21T08:57:50;3.58;;;2.00;;
32138;SDS011;18644;48.700;9.210;2022-08-21T09:00:21;3.58;;;1.83;;
32138;SDS011;18644;48.700;9.210;2022-08-21T09:02:50;3.40;;;1.55;;
32138;SDS011;18644;48.700;9.210;2022-08-21T09:05:23;3.05;;;1.88;;
32138;SDS011;18644;48.700;9.210;2022-08-21T09:07:57;2.20;;;1.65;;
32138;SDS011;18644;48.700;9.210;2022-08-21T09:10:43;2.50;;;1.67;;
32138;SDS011;18644;48.700;9.210;2022-08-21T09:13:24;3.30;;;1.52;;
32138;SDS011;18644;48.700;9.210;2022-08-21T09:16:05;3.42;;;1.95;;
32138;SDS011;18644;48.700;9.210;2022-08-21T09:18:43;2.55;;;1.90;;
32138;SDS011;18644;48.700;9.210;2022-08-21T09:21:20;2.25;;;1.70;;
32138;SDS011;18644;48.700;9.210;2022-08-21T09:26:44;1.40;;;1.30;;
32138;SDS011;18644;48.700;9.210;2022-08-21T09:29:19;2.63;;;1.48;;
32138;SDS011;18644;48.700;9.210;2022-08-21T09:31:52;2.47;;;1.67;;
32138;SDS011;18644;48.700;9.210;2022-08-21T09:34:24;2.63;;;1.70;;
32138;SDS011;18644;48.700;9.210;2022-08-21T09:36:54;3.35;;;1.60;;
32138;SDS011;18644;48.700;9.210;2022-08-21T09:39:22;4.43;;;1.75;;
32138;SDS011;18644;48.700;9.210;2022-08-21T09:41:55;2.13;;;1.45;;
32138;SDS011;18644;48.700;9.210;2022-08-21T09:44:24;2.72;;;1.67;;
32138;SDS011;18644;48.700;9.210;2022-08-21T09:46:55;6.40;;;2.10;;
32138;SDS011;18644;48.700;9.210;2022-08-21T09:49:28;2.75;;;1.85;;
32138;SDS011;18644;48.700;9.210;2022-08-21T09:51:57;3.22;;;2.00;;
32138;SDS011;18644;48.700;9.210;2022-08-21T09:54:26;2.63;;;1.80;;
32138;SDS011;18644;48.700;9.210;2022-08-21T09:57:00;2.75;;;1.52;;
32138;SDS011;18644;48.700;9.210;2022-08-21T09:59:55;2.67;;;1.80;;
32138;SDS011;18644;48.700;9.210;2022-08-21T10:02:36;3.70;;;1.75;;
32138;SDS011;18644;48.700;9.210;2022-08-21T10:05:06;2.65;;;1.70;;
32138;SDS011;18644;48.700;9.210;2022-08-21T10:07:41;2.85;;;1.75;;
32138;SDS011;18644;48.700;9.210;2022-08-21T10:10:14;2.45;;;1.85;;
32138;SDS011;18644;48.700;9.210;2022-08-21T10:12:46;3.20;;;1.63;;
32138;SDS011;18644;48.700;9.210;2022-08-21T10:15:35;3.17;;;1.45;;
32138;SDS011;18644;48.700;9.210;2022-08-21T10:18:17;3.08;;;1.80;;
32138;SDS011;18644;48.700;9.210;2022-08-21T10:20:52;2.95;;;1.65;;
32138;SDS011;18644;48.700;9.210;2022-08-21T10:23:39;3.55;;;1.70;;
32138;SDS011;18644;48.700;9.210;2022-08-21T10:26:20;3.28;;;1.90;;
32138;SDS011;18644;48.700;9.210;2022-08-21T10:29:03;3.75;;;1.95;;
32138;SDS011;18644;48.700;9.210;2022-08-21T10:31:39;2.30;;;1.55;;
32138;SDS011;18644;48.700;9.210;2022-08-21T10:34:18;1.40;;;1.27;;
32138;SDS011;18644;48.700;9.210;2022-08-21T10:37:10;2.72;;;1.83;;
32138;SDS011;18644;48.700;9.210;2022-08-21T10:39:47;3.20;;;2.15;;
32138;SDS011;18644;48.700;9.210;2022-08-21T10:42:33;3.40;;;1.80;;
32138;SDS011;18644;48.700;9.210;2022-08-21T10:45:14;2.63;;;1.63;;
32138;SDS011;18644;48.700;9.210;2022-08-21T10:47:53;2.78;;;1.58;;
32138;SDS011;18644;48.700;9.210;2022-08-21T10:50:28;3.00;;;1.60;;
32138;SDS011;18644;48.700;9.210;2022-08-21T10:53:04;4.05;;;1.83;;
32138;SDS011;18644;48.700;9.210;2022-08-21T10:55:48;2.40;;;1.60;;
32138;SDS011;18644;48.700;9.210;2022-08-21T10:58:23;5.30;;;1.90;;
32138;SDS011;18644;48.700;9.210;2022-08-21T11:00:57;2.53;;;1.63;;
32138;SDS011;18644;48.700;9.210;2022-08-21T11:03:32;2.95;;;1.70;;
32138;SDS011;18644;48.700;9.210;2022-08-21T11:06:06;4.15;;;2.13;;
32138;SDS011;18644;48.700;9.210;2022-08-21T11:08:39;3.72;;;1.88;;
32138;SDS011;18644;48.700;9.210;2022-08-21T11:11:11;3.72;;;1.67;;
32138;SDS011;18644;48.700;9.210;2022-08-21T11:13:42;4.15;;;2.08;;
32138;SDS011;18644;48.700;9.210;2022-08-21T11:16:16;5.90;;;1.83;;
32138;SDS011;18644;48.700;9.210;2022-08-21T11:18:49;5.15;;;1.95;;
32138;SDS011;18644;48.700;9.210;2022-08-21T11:21:33;4.93;;;1.60;;
32138;SDS011;18644;48.700;9.210;2022-08-21T11:24:15;2.55;;;1.67;;
32138;SDS011;18644;48.700;9.210;2022-08-21T11:27:07;2.22;;;1.58;;
32138;SDS011;18644;48.700;9.210;2022-08-21T11:29:44;2.92;;;1.83;;
32138;SDS011;18644;48.700;9.210;2022-08-21T11:32:24;2.78;;;1.70;;
32138;SDS011;18644;48.700;9.210;2022-08-21T11:35:12;2.72;;;1.90;;
32138;SDS011;18644;48.700;9.210;2022-08-21T11:37:52;2.03;;;1.70;;
32138;SDS011;18644;48.700;9.210;2022-08-21T11:40:34;2.70;;;1.77;;
32138;SDS011;18644;48.700;9.210;2022-08-21T11:43:20;6.97;;;2.28;;
32138;SDS011;18644;48.700;9.210;2022-08-21T11:45:52;1.88;;;1.45;;
32138;SDS011;18644;48.700;9.210;2022-08-21T11:48:28;1.88;;;1.60;;
32138;SDS011;18644;48.700;9.210;2022-08-21T11:51:04;2.80;;;1.90;;
32138;SDS011;18644;48.700;9.210;2022-08-21T11:53:39;2.17;;;1.77;;
32138;SDS011;18644;48.700;9.210;2022-08-21T11:56:16;1.80;;;1.50;;
32138;SDS011;18644;48.700;9.210;2022-08-21T11:58:48;2.17;;;1.50;;
32138;SDS011;18644;48.700;9.210;2022-08-21T12:01:19;2.22;;;1.42;;
32138;SDS011;18644;48.700;9.210;2022-08-21T12:03:54;2.03;;;1.63;;
32138;SDS011;18644;48.700;9.210;2022-08-21T12:06:28;1.92;;;1.40;;
32138;SDS011;18644;48.700;9.210;2022-08-21T12:09:03;2.50;;;1.48;;
32138;SDS011;18644;48.700;9.210;2022-08-21T12:11:43;2.25;;;1.50;;
32138;SDS011;18644;48.700;9.210;2022-08-21T12:14:14;2.75;;;1.63;;
32138;SDS011;18644;48.700;9.210;2022-08-21T12:16:44;5.00;;;1.52;;
32138;SDS011;18644;48.700;9.210;2022-08-21T12:19:16;1.88;;;1.50;;
32138;SDS011;18644;48.700;9.210;2022-08-21T12:21:58;3.08;;;1.48;;
32138;SDS011;18644;48.700;9.210;2022-08-21T12:24:36;2.95;;;1.55;;
32138;SDS011;18644;48.700;9.210;2022-08-21T12:27:17;2.50;;;1.55;;
32138;SDS011;18644;48.700;9.210;2022-08-21T12:29:52;2.65;;;1.50;;
32138;SDS011;18644;48.700;9.210;2022-08-21T12:32:24;3.33;;;1.60;;
32138;SDS011;18644;48.700;9.210;2022-08-21T12:34:54;2.92;;;1.75;;
32138;SDS011;18644;48.700;9.210;2022-08-21T12:37:29;13.05;;;1.63;;
32138;SDS011;18644;48.700;9.210;2022-08-21T12:40:09;2.78;;;1.60;;
32138;SDS011;18644;48.700;9.210;2022-08-21T12:42:41;1.40;;;1.30;;
32138;SDS011;18644;48.700;9.210;2022-08-21T12:45:16;2.70;;;1.70;;
32138;SDS011;18644;48.700;9.210;2022-08-21T12:47:48;2.08;;;1.45;;
32138;SDS011;18644;48.700;9.210;2022-08-21T12:50:24;1.98;;;1.67;;
32138;SDS011;18644;48.700;9.210;2022-08-21T12:52:59;4.47;;;1.50;;
32138;SDS011;18644;48.700;9.210;2022-08-21T12:55:34;1.88;;;1.40;;
32138;SDS011;18644;48.700;9.210;2022-08-21T12:58:16;2.47;;;1.50;;
32138;SDS011;18644;48.700;9.210;2022-08-21T13:00:47;2.03;;;1.38;;
32138;SDS011;18644;48.700;9.210;2022-08-21T13:03:17;3.15;;;1.63;;
32138;SDS011;18644;48.700;9.210;2022-08-21T13:05:44;2.70;;;1.35;;
32138;SDS011;18644;48.700;9.210;2022-08-21T13:08:12;3.50;;;1.30;;
32138;SDS011;18644;48.700;9.210;2022-08-21T13:10:41;2.22;;;1.38;;
32138;SDS011;18644;48.700;9.210;2022-08-21T13:13:12;1.98;;;1.45;;
32138;SDS011;18644;48.700;9.210;2022-08-21T13:15:46;3.50;;;1.73;;
32138;SDS011;18644;48.700;9.210;2022-08-21T13:18:19;2.50;;;1.20;;
32138;SDS011;18644;48.700;9.210;2022-08-21T13:20:49;1.88;;;1.40;;
32138;SDS011;18644;48.700;9.210;2022-08-21T13:23:19;1.90;;;1.48;;
32138;SDS011;18644;48.700;9.210;2022-08-21T13:25:52;2.45;;;1.50;;
32138;SDS011;18644;48.700;9.210;2022-08-21T13:28:19;4.80;;;2.30;;
32138;SDS011;18644;48.700;9.210;2022-08-21T13:30:47;2.10;;;1.33;;
32138;SDS011;18644;48.700;9.210;2022-08-21T13:33:17;2.83;;;1.45;;
32138;SDS011;18644;48.700;9.210;2022-08-21T13:35:48;2.63;;;1.58;;
32138;SDS011;18644;48.700;9.210;2022-08-21T13:38:19;1.95;;;1.35;;
32138;SDS011;18644;48.700;9.210;2022-08-21T13:40:49;1.80;;;1.20;;
32138;SDS011;18644;48.700;9.210;2022-08-21T13:43:22;2.67;;;1.52;;
32138;SDS011;18644;48.700;9.210;2022-08-21T13:45:54;1.95;;;1.33;;
32138;SDS011;18644;48.700;9.210;2022-08-21T13:48:22;2.15;;;1.67;;
32138;SDS011;18644;48.700;9.210;2022-08-21T13:50:54;2.50;;;1.60;;
32138;SDS011;18644;48.700;9.210;2022-08-21T13:53:23;1.85;;;1.40;;
32138;SDS011;18644;48.700;9.210;2022-08-21T13:55:57;5.10;;;2.08;;
32138;SDS011;18644;48.700;9.210;2022-08-21T13:58:26;2.05;;;1.45;;
32138;SDS011;18644;48.700;9.210;2022-08-21T14:00:55;2.60;;;1.38;;
32138;SDS011;18644;48.700;9.210;2022-08-21T14:03:31;1.80;;;1.38;;
32138;SDS011;18644;48.700;9.210;2022-08-21T14:06:00;2.40;;;1.58;;
32138;SDS011;18644;48.700;9.210;2022-08-21T14:08:31;2.72;;;1.48;;
32138;SDS011;18644;48.700;9.210;2022-08-21T14:11:04;1.98;;;1.45;;
32138;SDS011;18644;48.700;9.210;2022-08-21T14:13:36;2.70;;;1.40;;
32138;SDS011;18644;48.700;9.210;2022-08-21T14:16:11;2.08;;;1.30;;
32138;SDS011;18644;48.700;9.210;2022-08-21T14:18:44;3.35;;;1.73;;
32138;SDS011;18644;48.700;9.210;2022-08-21T14:21:27;1.42;;;1.20;;
32138;SDS011;18644;48.700;9.210;2022-08-21T14:24:04;2.33;;;1.20;;
32138;SDS011;18644;48.700;9.210;2022-08-21T14:26:37;2.30;;;1.40;;
32138;SDS011;18644;48.700;9.210;2022-08-21T14:29:13;3.63;;;1.35;;
32138;SDS011;18644;48.700;9.210;2022-08-21T14:31:42;3.58;;;1.60;;
32138;SDS011;18644;48.700;9.210;2022-08-21T14:34:15;1.50;;;1.40;;
32138;SDS011;18644;48.700;9.210;2022-08-21T14:36:43;1.45;;;1.25;;
32138;SDS011;18644;48.700;9.210;2022-08-21T14:39:10;1.45;;;1.20;;
32138;SDS011;18644;48.700;9.210;2022-08-21T14:41:38;1.83;;;1.40;;
32138;SDS011;18644;48.700;9.210;2022-08-21T14:44:06;3.58;;;1.50;;
32138;SDS011;18644;48.700;9.210;2022-08-21T14:46:33;1.52;;;1.00;;
32138;SDS011;18644;48.700;9.210;2022-08-21T14:49:01;1.80;;;1.13;;
32138;SDS011;18644;48.700;9.210;2022-08-21T14:51:28;2.60;;;1.50;;
32138;SDS011;18644;48.700;9.210;2022-08-21T14:53:55;2.28;;;1.60;;
32138;SDS011;18644;48.700;9.210;2022-08-21T14:56:22;2.25;;;1.27;;
32138;SDS011;18644;48.700;9.210;2022-08-21T14:58:52;1.58;;;1.48;;
32138;SDS011;18644;48.700;9.210;2022-08-21T15:01:21;2.77;;;1.47;;
32138;SDS011;18644;48.700;9.210;2022-08-21T15:03:49;2.10;;;1.50;;
32138;SDS011;18644;48.700;9.210;2022-08-21T15:06:16;1.67;;;1.23;;
32138;SDS011;18644;48.700;9.210;2022-08-21T15:08:45;1.85;;;1.55;;
32138;SDS011;18644;48.700;9.210;2022-08-21T15:11:15;1.75;;;1.40;;
32138;SDS011;18644;48.700;9.210;2022-08-21T15:13:44;2.00;;;1.23;;
32138;SDS011;18644;48.700;9.210;2022-08-21T15:16:13;1.30;;;1.02;;